Terminal Aerodrome Forecast
Issued by NWS Memphis, TN

Home | Current Version | Previous Version | Text Only | Print | Product List | Glossary On
Versions: 1 2 3 4 5 6 7 8 9 10 11 12 13 14 15 16 17 18 19 20 21 22 23 24 25
000
FTUS44 KMEG 301130
TAFMEM
TAF
KMEM 301130Z 3012/0112 32004KT P6SM SCT025 BKN035
      TEMPO 3012/3015 BKN025
     FM301500 33008KT P6SM SCT035
     FM301700 32010KT P6SM BKN035
     FM010200 02003KT P6SM SCT060=

USA.gov is the U.S. government's official web portal to all federal, state and local government web resources and services.